sensor_id;sensor_type;location;lat;lon;timestamp;temperature;humidity
48019;DHT22;33786;48.690;9.562;2023-11-19T00:00:29;7.90;99.90
48019;DHT22;33786;48.690;9.562;2023-11-19T00:02:56;7.90;99.90
48019;DHT22;33786;48.690;9.562;2023-11-19T00:05:23;8.00;99.90
48019;DHT22;33786;48.690;9.562;2023-11-19T00:07:50;8.00;99.90
48019;DHT22;33786;48.690;9.562;2023-11-19T00:10:16;8.00;99.90
48019;DHT22;33786;48.690;9.562;2023-11-19T00:12:47;8.10;99.90
48019;DHT22;33786;48.690;9.562;2023-11-19T00:15:18;8.00;99.90
48019;DHT22;33786;48.690;9.562;2023-11-19T00:17:46;8.00;99.90
48019;DHT22;33786;48.690;9.562;2023-11-19T00:20:15;8.00;99.90
48019;DHT22;33786;48.690;9.562;2023-11-19T00:22:42;8.00;99.90
48019;DHT22;33786;48.690;9.562;2023-11-19T00:25:12;8.00;99.90
48019;DHT22;33786;48.690;9.562;2023-11-19T00:27:39;8.00;99.90
48019;DHT22;33786;48.690;9.562;2023-11-19T00:30:05;8.00;99.90
48019;DHT22;33786;48.690;9.562;2023-11-19T00:32:33;8.00;99.90
48019;DHT22;33786;48.690;9.562;2023-11-19T00:34:59;8.00;99.90
48019;DHT22;33786;48.690;9.562;2023-11-19T00:37:26;8.10;99.90
48019;DHT22;33786;48.690;9.562;2023-11-19T00:39:53;8.10;99.90
48019;DHT22;33786;48.690;9.562;2023-11-19T00:42:20;8.20;99.90
48019;DHT22;33786;48.690;9.562;2023-11-19T00:44:47;8.20;99.90
48019;DHT22;33786;48.690;9.562;2023-11-19T00:47:17;8.30;99.90
48019;DHT22;33786;48.690;9.562;2023-11-19T00:49:46;8.20;99.90
48019;DHT22;33786;48.690;9.562;2023-11-19T00:52:15;8.30;99.90
48019;DHT22;33786;48.690;9.562;2023-11-19T00:54:42;8.40;99.90
48019;DHT22;33786;48.690;9.562;2023-11-19T00:57:09;8.40;99.90
48019;DHT22;33786;48.690;9.562;2023-11-19T00:59:36;8.50;99.90
48019;DHT22;33786;48.690;9.562;2023-11-19T01:02:02;8.60;99.90
48019;DHT22;33786;48.690;9.562;2023-11-19T01:04:34;8.60;99.90
48019;DHT22;33786;48.690;9.562;2023-11-19T01:07:05;8.50;99.90
48019;DHT22;33786;48.690;9.562;2023-11-19T01:09:32;8.60;99.90
48019;DHT22;33786;48.690;9.562;2023-11-19T01:12:01;8.60;99.90
48019;DHT22;33786;48.690;9.562;2023-11-19T01:14:28;8.70;99.90
48019;DHT22;33786;48.690;9.562;2023-11-19T01:16:55;8.70;99.90
48019;DHT22;33786;48.690;9.562;2023-11-19T01:19:22;8.70;99.90
48019;DHT22;33786;48.690;9.562;2023-11-19T01:21:49;8.80;99.90
48019;DHT22;33786;48.690;9.562;2023-11-19T01:24:16;8.70;99.90
48019;DHT22;33786;48.690;9.562;2023-11-19T01:26:43;8.80;99.90
48019;DHT22;33786;48.690;9.562;2023-11-19T01:29:16;8.80;99.90
48019;DHT22;33786;48.690;9.562;2023-11-19T01:31:43;8.70;99.90
48019;DHT22;33786;48.690;9.562;2023-11-19T01:34:10;8.50;99.90
48019;DHT22;33786;48.690;9.562;2023-11-19T01:36:38;8.50;99.90
48019;DHT22;33786;48.690;9.562;2023-11-19T01:39:06;8.60;99.90
48019;DHT22;33786;48.690;9.562;2023-11-19T01:41:36;8.50;99.90
48019;DHT22;33786;48.690;9.562;2023-11-19T01:44:03;8.50;99.90
48019;DHT22;33786;48.690;9.562;2023-11-19T01:46:30;8.40;99.90
48019;DHT22;33786;48.690;9.562;2023-11-19T01:49:00;8.50;99.90
48019;DHT22;33786;48.690;9.562;2023-11-19T01:51:27;8.40;99.90
48019;DHT22;33786;48.690;9.562;2023-11-19T01:53:53;8.40;99.90
48019;DHT22;33786;48.690;9.562;2023-11-19T01:56:21;8.40;99.90
48019;DHT22;33786;48.690;9.562;2023-11-19T01:58:48;8.40;99.90
48019;DHT22;33786;48.690;9.562;2023-11-19T02:01:15;8.00;99.90
48019;DHT22;33786;48.690;9.562;2023-11-19T02:03:42;8.40;99.90
48019;DHT22;33786;48.690;9.562;2023-11-19T02:06:09;8.40;99.90
48019;DHT22;33786;48.690;9.562;2023-11-19T02:08:37;8.40;99.90
48019;DHT22;33786;48.690;9.562;2023-11-19T02:11:05;8.40;99.90
48019;DHT22;33786;48.690;9.562;2023-11-19T02:13:33;8.40;99.90
48019;DHT22;33786;48.690;9.562;2023-11-19T02:16:03;8.40;99.90
48019;DHT22;33786;48.690;9.562;2023-11-19T02:18:30;8.40;99.90
48019;DHT22;33786;48.690;9.562;2023-11-19T02:20:57;8.50;99.90
48019;DHT22;33786;48.690;9.562;2023-11-19T02:23:24;8.50;99.90
48019;DHT22;33786;48.690;9.562;2023-11-19T02:26:08;8.60;99.90
48019;DHT22;33786;48.690;9.562;2023-11-19T02:28:36;8.80;99.90
48019;DHT22;33786;48.690;9.562;2023-11-19T02:31:03;8.90;99.90
48019;DHT22;33786;48.690;9.562;2023-11-19T02:33:37;9.10;99.90
48019;DHT22;33786;48.690;9.562;2023-11-19T02:36:07;9.10;99.90
48019;DHT22;33786;48.690;9.562;2023-11-19T02:38:34;9.20;99.90
48019;DHT22;33786;48.690;9.562;2023-11-19T02:41:04;9.30;99.90
48019;DHT22;33786;48.690;9.562;2023-11-19T02:43:34;9.40;99.90
48019;DHT22;33786;48.690;9.562;2023-11-19T02:46:01;9.40;99.90
48019;DHT22;33786;48.690;9.562;2023-11-19T02:48:41;9.50;99.90
48019;DHT22;33786;48.690;9.562;2023-11-19T02:51:08;9.50;99.90
48019;DHT22;33786;48.690;9.562;2023-11-19T02:53:36;9.60;99.90
48019;DHT22;33786;48.690;9.562;2023-11-19T02:56:07;9.60;99.90
48019;DHT22;33786;48.690;9.562;2023-11-19T02:58:43;9.70;99.90
48019;DHT22;33786;48.690;9.562;2023-11-19T03:01:11;9.70;99.90
48019;DHT22;33786;48.690;9.562;2023-11-19T03:03:50;9.70;99.90
48019;DHT22;33786;48.690;9.562;2023-11-19T03:06:21;9.70;99.90
48019;DHT22;33786;48.690;9.562;2023-11-19T03:08:48;9.70;99.90
48019;DHT22;33786;48.690;9.562;2023-11-19T03:11:15;9.70;99.90
48019;DHT22;33786;48.690;9.562;2023-11-19T03:13:41;9.80;99.90
48019;DHT22;33786;48.690;9.562;2023-11-19T03:16:08;9.70;99.90
48019;DHT22;33786;48.690;9.562;2023-11-19T03:18:35;9.80;99.90
48019;DHT22;33786;48.690;9.562;2023-11-19T03:21:02;9.80;99.90
48019;DHT22;33786;48.690;9.562;2023-11-19T03:23:29;9.90;99.90
48019;DHT22;33786;48.690;9.562;2023-11-19T03:25:56;9.80;99.90
48019;DHT22;33786;48.690;9.562;2023-11-19T03:28:23;9.80;99.90
48019;DHT22;33786;48.690;9.562;2023-11-19T03:30:50;9.80;99.90
48019;DHT22;33786;48.690;9.562;2023-11-19T03:33:17;9.80;99.90
48019;DHT22;33786;48.690;9.562;2023-11-19T03:35:43;9.80;99.90
48019;DHT22;33786;48.690;9.562;2023-11-19T03:38:10;9.80;99.90
48019;DHT22;33786;48.690;9.562;2023-11-19T03:40:37;9.80;99.90
48019;DHT22;33786;48.690;9.562;2023-11-19T03:43:05;9.90;99.90
48019;DHT22;33786;48.690;9.562;2023-11-19T03:45:32;9.80;99.90
48019;DHT22;33786;48.690;9.562;2023-11-19T03:47:59;9.90;99.90
48019;DHT22;33786;48.690;9.562;2023-11-19T03:50:25;9.90;99.90
48019;DHT22;33786;48.690;9.562;2023-11-19T03:52:52;9.90;99.90
48019;DHT22;33786;48.690;9.562;2023-11-19T03:55:19;10.00;99.90
48019;DHT22;33786;48.690;9.562;2023-11-19T03:57:46;9.90;99.90
48019;DHT22;33786;48.690;9.562;2023-11-19T04:00:15;10.00;99.90
48019;DHT22;33786;48.690;9.562;2023-11-19T04:02:42;10.00;99.90
48019;DHT22;33786;48.690;9.562;2023-11-19T04:05:09;9.90;99.90
48019;DHT22;33786;48.690;9.562;2023-11-19T04:07:36;10.00;99.90
48019;DHT22;33786;48.690;9.562;2023-11-19T04:10:04;10.00;99.90
48019;DHT22;33786;48.690;9.562;2023-11-19T04:12:30;10.00;99.90
48019;DHT22;33786;48.690;9.562;2023-11-19T04:14:57;10.10;99.90
48019;DHT22;33786;48.690;9.562;2023-11-19T04:17:27;10.00;99.90
48019;DHT22;33786;48.690;9.562;2023-11-19T04:19:54;10.00;99.90
48019;DHT22;33786;48.690;9.562;2023-11-19T04:22:22;10.00;99.90
48019;DHT22;33786;48.690;9.562;2023-11-19T04:24:49;10.00;99.90
48019;DHT22;33786;48.690;9.562;2023-11-19T04:27:16;10.00;99.90
48019;DHT22;33786;48.690;9.562;2023-11-19T04:29:42;10.10;99.90
48019;DHT22;33786;48.690;9.562;2023-11-19T04:32:09;10.10;99.90
48019;DHT22;33786;48.690;9.562;2023-11-19T04:34:36;10.10;99.90
48019;DHT22;33786;48.690;9.562;2023-11-19T04:37:04;10.10;99.90
48019;DHT22;33786;48.690;9.562;2023-11-19T04:39:33;10.10;99.90
48019;DHT22;33786;48.690;9.562;2023-11-19T04:42:00;10.10;99.90
48019;DHT22;33786;48.690;9.562;2023-11-19T04:44:27;10.10;99.90
48019;DHT22;33786;48.690;9.562;2023-11-19T04:46:56;10.10;99.90
48019;DHT22;33786;48.690;9.562;2023-11-19T04:49:23;10.20;99.90
48019;DHT22;33786;48.690;9.562;2023-11-19T04:51:49;10.20;99.90
48019;DHT22;33786;48.690;9.562;2023-11-19T04:54:17;10.30;99.90
48019;DHT22;33786;48.690;9.562;2023-11-19T04:56:46;10.30;99.90
48019;DHT22;33786;48.690;9.562;2023-11-19T04:59:16;10.30;99.90
48019;DHT22;33786;48.690;9.562;2023-11-19T05:01:46;10.30;99.90
48019;DHT22;33786;48.690;9.562;2023-11-19T05:04:14;10.40;99.90
48019;DHT22;33786;48.690;9.562;2023-11-19T05:06:42;10.50;99.90
48019;DHT22;33786;48.690;9.562;2023-11-19T05:09:08;10.50;99.90
48019;DHT22;33786;48.690;9.562;2023-11-19T05:11:35;10.60;99.90
48019;DHT22;33786;48.690;9.562;2023-11-19T05:14:16;10.60;99.90
48019;DHT22;33786;48.690;9.562;2023-11-19T05:16:43;10.60;99.90
48019;DHT22;33786;48.690;9.562;2023-11-19T05:19:10;10.60;99.90
48019;DHT22;33786;48.690;9.562;2023-11-19T05:21:36;10.70;99.90
48019;DHT22;33786;48.690;9.562;2023-11-19T05:24:03;10.80;99.90
48019;DHT22;33786;48.690;9.562;2023-11-19T05:26:33;10.80;99.90
48019;DHT22;33786;48.690;9.562;2023-11-19T05:28:59;10.80;99.90
48019;DHT22;33786;48.690;9.562;2023-11-19T05:31:26;10.80;99.90
48019;DHT22;33786;48.690;9.562;2023-11-19T05:33:53;10.80;99.90
48019;DHT22;33786;48.690;9.562;2023-11-19T05:36:20;10.90;99.90
48019;DHT22;33786;48.690;9.562;2023-11-19T05:38:46;10.90;99.90
48019;DHT22;33786;48.690;9.562;2023-11-19T05:41:13;10.90;99.90
48019;DHT22;33786;48.690;9.562;2023-11-19T05:43:40;10.90;99.90
48019;DHT22;33786;48.690;9.562;2023-11-19T05:46:07;11.00;99.90
48019;DHT22;33786;48.690;9.562;2023-11-19T05:48:46;11.00;99.90
48019;DHT22;33786;48.690;9.562;2023-11-19T05:51:13;11.10;99.90
48019;DHT22;33786;48.690;9.562;2023-11-19T05:53:42;11.10;99.90
48019;DHT22;33786;48.690;9.562;2023-11-19T05:56:08;11.20;99.90
48019;DHT22;33786;48.690;9.562;2023-11-19T05:58:36;11.20;99.90
48019;DHT22;33786;48.690;9.562;2023-11-19T06:01:04;11.20;99.90
48019;DHT22;33786;48.690;9.562;2023-11-19T06:03:31;11.30;99.90
48019;DHT22;33786;48.690;9.562;2023-11-19T06:05:58;11.30;99.90
48019;DHT22;33786;48.690;9.562;2023-11-19T06:08:25;11.20;99.90
48019;DHT22;33786;48.690;9.562;2023-11-19T06:10:53;11.30;99.90
48019;DHT22;33786;48.690;9.562;2023-11-19T06:13:20;11.30;99.90
48019;DHT22;33786;48.690;9.562;2023-11-19T06:15:51;11.30;99.90
48019;DHT22;33786;48.690;9.562;2023-11-19T06:18:18;11.30;99.90
48019;DHT22;33786;48.690;9.562;2023-11-19T06:20:47;11.30;99.90
48019;DHT22;33786;48.690;9.562;2023-11-19T06:23:14;11.30;99.90
48019;DHT22;33786;48.690;9.562;2023-11-19T06:25:40;11.30;99.90
48019;DHT22;33786;48.690;9.562;2023-11-19T06:28:07;11.30;99.90
48019;DHT22;33786;48.690;9.562;2023-11-19T06:30:34;11.40;99.90
48019;DHT22;33786;48.690;9.562;2023-11-19T06:33:02;11.40;99.90
48019;DHT22;33786;48.690;9.562;2023-11-19T06:35:30;11.40;99.90
48019;DHT22;33786;48.690;9.562;2023-11-19T06:38:03;11.40;99.90
48019;DHT22;33786;48.690;9.562;2023-11-19T06:40:33;11.50;99.90
48019;DHT22;33786;48.690;9.562;2023-11-19T06:43:01;11.50;99.90
48019;DHT22;33786;48.690;9.562;2023-11-19T06:45:30;11.50;99.90
48019;DHT22;33786;48.690;9.562;2023-11-19T06:47:57;11.50;99.90
48019;DHT22;33786;48.690;9.562;2023-11-19T06:50:25;11.60;99.90
48019;DHT22;33786;48.690;9.562;2023-11-19T06:52:52;11.60;99.90
48019;DHT22;33786;48.690;9.562;2023-11-19T06:55:18;11.50;99.90
48019;DHT22;33786;48.690;9.562;2023-11-19T06:57:45;11.50;99.90
48019;DHT22;33786;48.690;9.562;2023-11-19T07:00:12;11.50;99.90
48019;DHT22;33786;48.690;9.562;2023-11-19T07:02:39;11.50;99.90
48019;DHT22;33786;48.690;9.562;2023-11-19T07:05:06;11.50;99.90
48019;DHT22;33786;48.690;9.562;2023-11-19T07:07:34;11.60;99.90
48019;DHT22;33786;48.690;9.562;2023-11-19T07:10:02;11.50;99.90
48019;DHT22;33786;48.690;9.562;2023-11-19T07:12:30;11.60;99.90
48019;DHT22;33786;48.690;9.562;2023-11-19T07:14:57;11.60;99.90
48019;DHT22;33786;48.690;9.562;2023-11-19T07:17:24;11.60;99.90
48019;DHT22;33786;48.690;9.562;2023-11-19T07:19:51;11.60;99.90
48019;DHT22;33786;48.690;9.562;2023-11-19T07:22:18;11.60;99.90
48019;DHT22;33786;48.690;9.562;2023-11-19T07:24:44;11.70;99.90
48019;DHT22;33786;48.690;9.562;2023-11-19T07:27:11;11.70;99.90
48019;DHT22;33786;48.690;9.562;2023-11-19T07:29:39;11.80;99.90
48019;DHT22;33786;48.690;9.562;2023-11-19T07:32:06;11.80;99.90
48019;DHT22;33786;48.690;9.562;2023-11-19T07:34:33;11.80;99.90
48019;DHT22;33786;48.690;9.562;2023-11-19T07:37:00;11.80;99.90
48019;DHT22;33786;48.690;9.562;2023-11-19T07:39:29;11.90;99.90
48019;DHT22;33786;48.690;9.562;2023-11-19T07:41:56;11.90;99.90
48019;DHT22;33786;48.690;9.562;2023-11-19T07:44:22;11.90;99.90
48019;DHT22;33786;48.690;9.562;2023-11-19T07:46:49;11.90;99.90
48019;DHT22;33786;48.690;9.562;2023-11-19T07:49:16;12.00;99.90
48019;DHT22;33786;48.690;9.562;2023-11-19T07:51:43;12.10;99.90
48019;DHT22;33786;48.690;9.562;2023-11-19T07:54:10;12.10;99.90
48019;DHT22;33786;48.690;9.562;2023-11-19T07:56:36;12.10;99.90
48019;DHT22;33786;48.690;9.562;2023-11-19T07:59:03;11.70;99.90
48019;DHT22;33786;48.690;9.562;2023-11-19T08:01:30;12.10;99.90
48019;DHT22;33786;48.690;9.562;2023-11-19T08:03:57;12.10;99.90
48019;DHT22;33786;48.690;9.562;2023-11-19T08:06:25;12.10;99.90
48019;DHT22;33786;48.690;9.562;2023-11-19T08:08:52;12.10;99.90
48019;DHT22;33786;48.690;9.562;2023-11-19T08:11:19;12.10;99.90
48019;DHT22;33786;48.690;9.562;2023-11-19T08:13:46;12.10;99.90
48019;DHT22;33786;48.690;9.562;2023-11-19T08:16:14;12.10;99.90
48019;DHT22;33786;48.690;9.562;2023-11-19T08:18:42;12.20;99.90
48019;DHT22;33786;48.690;9.562;2023-11-19T08:21:09;12.30;99.90
48019;DHT22;33786;48.690;9.562;2023-11-19T08:23:37;12.40;99.90
48019;DHT22;33786;48.690;9.562;2023-11-19T08:26:05;12.40;99.90
48019;DHT22;33786;48.690;9.562;2023-11-19T08:28:32;12.40;99.90
48019;DHT22;33786;48.690;9.562;2023-11-19T08:31:00;12.50;99.90
48019;DHT22;33786;48.690;9.562;2023-11-19T08:33:27;12.50;99.90
48019;DHT22;33786;48.690;9.562;2023-11-19T08:35:54;12.60;99.90
48019;DHT22;33786;48.690;9.562;2023-11-19T08:38:21;12.70;99.90
48019;DHT22;33786;48.690;9.562;2023-11-19T08:40:51;12.80;99.90
48019;DHT22;33786;48.690;9.562;2023-11-19T08:43:18;13.80;99.90
48019;DHT22;33786;48.690;9.562;2023-11-19T08:45:45;14.40;99.90
48019;DHT22;33786;48.690;9.562;2023-11-19T08:48:12;14.50;99.90
48019;DHT22;33786;48.690;9.562;2023-11-19T08:50:38;14.40;99.90
48019;DHT22;33786;48.690;9.562;2023-11-19T08:53:05;14.30;99.90
48019;DHT22;33786;48.690;9.562;2023-11-19T08:55:33;14.20;99.90
48019;DHT22;33786;48.690;9.562;2023-11-19T08:58:00;15.20;99.90
48019;DHT22;33786;48.690;9.562;2023-11-19T09:00:27;16.50;99.90
48019;DHT22;33786;48.690;9.562;2023-11-19T09:02:54;16.90;99.90
48019;DHT22;33786;48.690;9.562;2023-11-19T09:05:21;16.20;99.90
48019;DHT22;33786;48.690;9.562;2023-11-19T09:07:48;15.70;99.90
48019;DHT22;33786;48.690;9.562;2023-11-19T09:10:16;15.90;99.90
48019;DHT22;33786;48.690;9.562;2023-11-19T09:12:43;16.20;99.90
48019;DHT22;33786;48.690;9.562;2023-11-19T09:15:09;15.70;99.90
48019;DHT22;33786;48.690;9.562;2023-11-19T09:17:39;15.50;99.90
48019;DHT22;33786;48.690;9.562;2023-11-19T09:20:07;15.00;99.90
48019;DHT22;33786;48.690;9.562;2023-11-19T09:22:35;15.10;99.90
48019;DHT22;33786;48.690;9.562;2023-11-19T09:25:02;15.80;99.90
48019;DHT22;33786;48.690;9.562;2023-11-19T09:27:29;17.70;99.90
48019;DHT22;33786;48.690;9.562;2023-11-19T09:29:55;18.60;99.90
48019;DHT22;33786;48.690;9.562;2023-11-19T09:32:24;19.10;99.90
48019;DHT22;33786;48.690;9.562;2023-11-19T09:34:51;18.90;99.90
48019;DHT22;33786;48.690;9.562;2023-11-19T09:37:18;18.10;99.90
48019;DHT22;33786;48.690;9.562;2023-11-19T09:39:48;17.60;99.90
48019;DHT22;33786;48.690;9.562;2023-11-19T09:42:15;17.40;99.90
48019;DHT22;33786;48.690;9.562;2023-11-19T09:44:42;17.10;99.90
48019;DHT22;33786;48.690;9.562;2023-11-19T09:47:10;16.80;99.90
48019;DHT22;33786;48.690;9.562;2023-11-19T09:49:38;16.90;99.90
48019;DHT22;33786;48.690;9.562;2023-11-19T09:52:05;16.50;99.90
48019;DHT22;33786;48.690;9.562;2023-11-19T09:54:32;16.00;99.90
48019;DHT22;33786;48.690;9.562;2023-11-19T09:56:59;15.70;99.90
48019;DHT22;33786;48.690;9.562;2023-11-19T09:59:30;15.80;99.90
48019;DHT22;33786;48.690;9.562;2023-11-19T10:01:57;17.60;99.90
48019;DHT22;33786;48.690;9.562;2023-11-19T10:04:24;18.10;99.90
48019;DHT22;33786;48.690;9.562;2023-11-19T10:06:52;17.40;99.90
48019;DHT22;33786;48.690;9.562;2023-11-19T10:09:18;16.60;99.90
48019;DHT22;33786;48.690;9.562;2023-11-19T10:11:45;16.10;99.90
48019;DHT22;33786;48.690;9.562;2023-11-19T10:14:12;16.40;99.90
48019;DHT22;33786;48.690;9.562;2023-11-19T10:16:39;16.70;99.90
48019;DHT22;33786;48.690;9.562;2023-11-19T10:19:07;17.00;99.90
48019;DHT22;33786;48.690;9.562;2023-11-19T10:21:34;18.10;99.90
48019;DHT22;33786;48.690;9.562;2023-11-19T10:24:01;18.20;99.90
48019;DHT22;33786;48.690;9.562;2023-11-19T10:26:30;17.80;99.90
48019;DHT22;33786;48.690;9.562;2023-11-19T10:28:57;18.00;99.90
48019;DHT22;33786;48.690;9.562;2023-11-19T10:31:23;19.00;99.90
48019;DHT22;33786;48.690;9.562;2023-11-19T10:33:52;19.60;99.90
48019;DHT22;33786;48.690;9.562;2023-11-19T10:36:19;19.30;99.80
48019;DHT22;33786;48.690;9.562;2023-11-19T10:38:52;17.90;99.90
48019;DHT22;33786;48.690;9.562;2023-11-19T10:41:29;16.90;99.90
48019;DHT22;33786;48.690;9.562;2023-11-19T10:43:57;16.50;99.90
48019;DHT22;33786;48.690;9.562;2023-11-19T10:46:40;16.20;99.90
48019;DHT22;33786;48.690;9.562;2023-11-19T10:49:07;16.10;99.90
48019;DHT22;33786;48.690;9.562;2023-11-19T10:51:34;15.70;99.90
48019;DHT22;33786;48.690;9.562;2023-11-19T10:54:02;15.40;99.90
48019;DHT22;33786;48.690;9.562;2023-11-19T10:56:30;15.20;99.90
48019;DHT22;33786;48.690;9.562;2023-11-19T10:58:57;15.20;99.90
48019;DHT22;33786;48.690;9.562;2023-11-19T11:01:43;15.30;99.90
48019;DHT22;33786;48.690;9.562;2023-11-19T11:04:14;15.20;99.90
48019;DHT22;33786;48.690;9.562;2023-11-19T11:06:42;15.30;99.90
48019;DHT22;33786;48.690;9.562;2023-11-19T11:09:09;15.30;99.90
48019;DHT22;33786;48.690;9.562;2023-11-19T11:11:41;16.00;99.90
48019;DHT22;33786;48.690;9.562;2023-11-19T11:14:12;17.10;99.90
48019;DHT22;33786;48.690;9.562;2023-11-19T11:16:43;17.50;99.90
48019;DHT22;33786;48.690;9.562;2023-11-19T11:19:11;17.60;99.90
48019;DHT22;33786;48.690;9.562;2023-11-19T11:21:40;17.20;99.90
48019;DHT22;33786;48.690;9.562;2023-11-19T11:29:24;16.50;99.90
48019;DHT22;33786;48.690;9.562;2023-11-19T11:39:21;15.80;99.90
48019;DHT22;33786;48.690;9.562;2023-11-19T11:42:02;15.60;99.90
48019;DHT22;33786;48.690;9.562;2023-11-19T11:47:20;15.30;99.90
48019;DHT22;33786;48.690;9.562;2023-11-19T11:49:47;15.40;99.90
48019;DHT22;33786;48.690;9.562;2023-11-19T11:52:14;15.40;99.90
48019;DHT22;33786;48.690;9.562;2023-11-19T11:54:42;15.30;99.90
48019;DHT22;33786;48.690;9.562;2023-11-19T11:57:10;15.30;99.90
48019;DHT22;33786;48.690;9.562;2023-11-19T12:02:10;15.10;99.90
48019;DHT22;33786;48.690;9.562;2023-11-19T12:04:38;15.10;99.90
48019;DHT22;33786;48.690;9.562;2023-11-19T12:07:06;15.10;99.90
48019;DHT22;33786;48.690;9.562;2023-11-19T12:09:33;15.20;99.90
48019;DHT22;33786;48.690;9.562;2023-11-19T12:17:35;15.70;99.90
48019;DHT22;33786;48.690;9.562;2023-11-19T12:20:04;15.80;99.90
48019;DHT22;33786;48.690;9.562;2023-11-19T12:22:33;15.80;99.90
48019;DHT22;33786;48.690;9.562;2023-11-19T12:25:00;16.00;99.90
48019;DHT22;33786;48.690;9.562;2023-11-19T12:27:28;16.00;99.90
48019;DHT22;33786;48.690;9.562;2023-11-19T12:29:54;16.10;99.90
48019;DHT22;33786;48.690;9.562;2023-11-19T12:32:23;16.30;99.90
48019;DHT22;33786;48.690;9.562;2023-11-19T12:34:50;16.40;99.90
48019;DHT22;33786;48.690;9.562;2023-11-19T12:37:17;16.30;99.90
48019;DHT22;33786;48.690;9.562;2023-11-19T12:39:43;16.30;99.90
48019;DHT22;33786;48.690;9.562;2023-11-19T12:42:10;15.90;99.90
48019;DHT22;33786;48.690;9.562;2023-11-19T12:44:39;15.80;99.90
48019;DHT22;33786;48.690;9.562;2023-11-19T12:47:06;15.70;99.90
48019;DHT22;33786;48.690;9.562;2023-11-19T12:49:34;15.60;99.90
48019;DHT22;33786;48.690;9.562;2023-11-19T12:52:00;15.60;99.90
48019;DHT22;33786;48.690;9.562;2023-11-19T12:54:37;15.50;99.90
48019;DHT22;33786;48.690;9.562;2023-11-19T12:57:04;15.50;99.90
48019;DHT22;33786;48.690;9.562;2023-11-19T12:59:31;15.50;99.90
48019;DHT22;33786;48.690;9.562;2023-11-19T13:01:58;15.50;99.90
48019;DHT22;33786;48.690;9.562;2023-11-19T13:04:29;15.70;99.90
48019;DHT22;33786;48.690;9.562;2023-11-19T13:06:59;16.00;99.90
48019;DHT22;33786;48.690;9.562;2023-11-19T13:09:29;16.00;99.90
48019;DHT22;33786;48.690;9.562;2023-11-19T13:11:56;15.80;99.90
48019;DHT22;33786;48.690;9.562;2023-11-19T13:14:23;16.10;99.90
48019;DHT22;33786;48.690;9.562;2023-11-19T13:16:50;16.20;99.90
48019;DHT22;33786;48.690;9.562;2023-11-19T13:19:17;16.20;99.90
48019;DHT22;33786;48.690;9.562;2023-11-19T13:21:46;16.30;99.90
48019;DHT22;33786;48.690;9.562;2023-11-19T13:24:15;16.20;99.90
48019;DHT22;33786;48.690;9.562;2023-11-19T13:26:42;16.10;99.90
48019;DHT22;33786;48.690;9.562;2023-11-19T13:29:09;16.00;99.90
48019;DHT22;33786;48.690;9.562;2023-11-19T13:31:37;15.90;99.90
48019;DHT22;33786;48.690;9.562;2023-11-19T13:34:04;15.80;99.90
48019;DHT22;33786;48.690;9.562;2023-11-19T13:36:33;15.70;99.90
48019;DHT22;33786;48.690;9.562;2023-11-19T13:39:01;15.60;99.90
48019;DHT22;33786;48.690;9.562;2023-11-19T13:41:28;15.90;99.90
48019;DHT22;33786;48.690;9.562;2023-11-19T13:43:54;15.40;99.90
48019;DHT22;33786;48.690;9.562;2023-11-19T13:46:22;15.40;99.90
48019;DHT22;33786;48.690;9.562;2023-11-19T13:48:49;15.30;99.90
48019;DHT22;33786;48.690;9.562;2023-11-19T13:51:16;15.20;99.90
48019;DHT22;33786;48.690;9.562;2023-11-19T13:53:43;15.20;99.90
48019;DHT22;33786;48.690;9.562;2023-11-19T13:56:13;15.10;99.90
48019;DHT22;33786;48.690;9.562;2023-11-19T13:58:39;15.10;99.90
48019;DHT22;33786;48.690;9.562;2023-11-19T14:01:07;15.10;99.90
48019;DHT22;33786;48.690;9.562;2023-11-19T14:03:34;15.00;99.90
48019;DHT22;33786;48.690;9.562;2023-11-19T14:06:01;15.10;99.90
48019;DHT22;33786;48.690;9.562;2023-11-19T14:08:29;15.10;99.90
48019;DHT22;33786;48.690;9.562;2023-11-19T14:10:56;15.10;99.90
48019;DHT22;33786;48.690;9.562;2023-11-19T14:13:23;15.10;99.90
48019;DHT22;33786;48.690;9.562;2023-11-19T14:15:50;15.00;99.90
48019;DHT22;33786;48.690;9.562;2023-11-19T14:18:18;14.90;99.90
48019;DHT22;33786;48.690;9.562;2023-11-19T14:20:44;14.70;99.90
48019;DHT22;33786;48.690;9.562;2023-11-19T14:23:11;14.50;99.90
48019;DHT22;33786;48.690;9.562;2023-11-19T14:25:38;14.60;99.90
48019;DHT22;33786;48.690;9.562;2023-11-19T14:28:05;14.60;99.90
48019;DHT22;33786;48.690;9.562;2023-11-19T14:30:32;14.60;99.90
48019;DHT22;33786;48.690;9.562;2023-11-19T14:33:01;14.60;99.90
48019;DHT22;33786;48.690;9.562;2023-11-19T14:35:28;14.60;99.90
48019;DHT22;33786;48.690;9.562;2023-11-19T14:37:57;14.50;99.90
48019;DHT22;33786;48.690;9.562;2023-11-19T14:40:23;14.40;99.90
48019;DHT22;33786;48.690;9.562;2023-11-19T14:43:08;14.50;99.90
48019;DHT22;33786;48.690;9.562;2023-11-19T14:45:38;14.40;99.90
48019;DHT22;33786;48.690;9.562;2023-11-19T14:48:15;14.40;99.90
48019;DHT22;33786;48.690;9.562;2023-11-19T14:50:42;14.40;99.90
48019;DHT22;33786;48.690;9.562;2023-11-19T14:53:08;14.50;99.90
48019;DHT22;33786;48.690;9.562;2023-11-19T14:55:35;14.50;99.90
48019;DHT22;33786;48.690;9.562;2023-11-19T14:58:02;14.50;99.90
48019;DHT22;33786;48.690;9.562;2023-11-19T15:00:36;14.40;99.90
48019;DHT22;33786;48.690;9.562;2023-11-19T15:03:03;14.30;99.90
48019;DHT22;33786;48.690;9.562;2023-11-19T15:05:30;14.30;99.90
48019;DHT22;33786;48.690;9.562;2023-11-19T15:07:57;14.30;99.90
48019;DHT22;33786;48.690;9.562;2023-11-19T15:10:23;14.20;99.90
48019;DHT22;33786;48.690;9.562;2023-11-19T15:12:52;14.00;99.90
48019;DHT22;33786;48.690;9.562;2023-11-19T15:15:20;13.90;99.90
48019;DHT22;33786;48.690;9.562;2023-11-19T15:17:50;13.80;99.90
48019;DHT22;33786;48.690;9.562;2023-11-19T15:20:17;13.80;99.90
48019;DHT22;33786;48.690;9.562;2023-11-19T15:22:46;13.70;99.90
48019;DHT22;33786;48.690;9.562;2023-11-19T15:25:12;13.60;99.90
48019;DHT22;33786;48.690;9.562;2023-11-19T15:27:39;13.60;99.90
48019;DHT22;33786;48.690;9.562;2023-11-19T15:30:06;13.60;99.90
48019;DHT22;33786;48.690;9.562;2023-11-19T15:32:35;13.60;99.90
48019;DHT22;33786;48.690;9.562;2023-11-19T15:35:02;13.60;99.90
48019;DHT22;33786;48.690;9.562;2023-11-19T15:37:29;13.50;99.90
48019;DHT22;33786;48.690;9.562;2023-11-19T15:39:56;13.50;99.90
48019;DHT22;33786;48.690;9.562;2023-11-19T15:42:23;13.50;99.90
48019;DHT22;33786;48.690;9.562;2023-11-19T15:44:50;13.40;99.90
48019;DHT22;33786;48.690;9.562;2023-11-19T15:47:17;13.40;99.90
48019;DHT22;33786;48.690;9.562;2023-11-19T15:49:43;13.20;99.90
48019;DHT22;33786;48.690;9.562;2023-11-19T15:52:11;13.20;99.90
48019;DHT22;33786;48.690;9.562;2023-11-19T15:54:41;13.10;99.90
48019;DHT22;33786;48.690;9.562;2023-11-19T15:57:08;13.10;99.90
48019;DHT22;33786;48.690;9.562;2023-11-19T15:59:34;13.00;99.90
48019;DHT22;33786;48.690;9.562;2023-11-19T16:02:01;12.90;99.90